Welcome to our new website - Forecast is Fixed. My Norwegian Blond mates had changed to https which broke my conection


Porch more information Porch


Driveway more information Driveway


Fitzroy Storm Glass more information Fitzroy Storm Glass


Visit our other Web Sites:

Tokoroa Info
Shinning a light on Tokoroa



Nearby METAR Reports

   
YSSY - Sydney
Updated: 25-02-2018 16:09
Nearby Showers, Overcast  
Nearby Showers, Overcast  
   Wind: South 38.9 km/h<br />Gust to 38.9 km/h
Wind: South 38.9 km/h
Gust to 38.9 km/h
Temperature: 21°C
Dew Point: 18°C
Humidity: 83%
Barometer: 1007 hPa
Clouds: Overcast
Visibility: More than 10 km
Cloud details: Few Clouds 1100 ft,
Partly Cloudy 2200 ft,
Overcast 2800 ft
YSSY 250309Z 17021G31KT 9999 VCSH FEW011 SCT022 OVC028 21/18 Q1007
YBBN - Brisbane
Updated: 25-02-2018 16:00
Light Showers, Rain, Mostly Cloudy  
Light Showers, Rain, Mostly Cloudy  
   Wind: NNE 22.2 km/h
Wind: NNE 22.2 km/h
Temperature: 27°C
Heat Index: 31°C
Dew Point: 25°C
Humidity: 89%
Barometer: 1006 hPa
Clouds: Mostly Cloudy
Visibility: More than 10 km
Cloud details: Few Clouds 1300 ft,
Partly Cloudy 7500 ft,
Mostly Cloudy 9500 ft,
Few Clouds 2500 ft
YBBN 250300Z 02012KT 9999 -SHRA FEW013 SCT075 BKN095 FEW025TCU 27/25 Q1006 INTER 0300/0600 4000 SHRA BKN012
YPPH - Perth
Updated: 25-02-2018 16:00
Mostly Cloudy  
Mostly Cloudy  
   Wind: North 16.7 km/h
Wind: North 16.7 km/h
Temperature: 31°C
Heat Index: 32°C
Dew Point: 18°C
Humidity: 46%
Barometer: 1007 hPa
Clouds: Mostly Cloudy
Visibility: More than 10 km
Cloud details: Mostly Cloudy 4500 ft
YPPH 250300Z 35009KT 310V010 9999 BKN045 31/18 Q1007 INTER 0430/0600 VRB25G40KT 3000 TSRA BKN030 FEW070CB
NZCH - Christchurch
Updated: 25-02-2018 16:00
Clear  
Clear  
   Wind: WNW 24.1 km/h
Wind: WNW 24.1 km/h
Temperature: 24°C
Dew Point: 8°C
Humidity: 36%
Barometer: 998 hPa
Clouds: Clear
Visibility: More than 10 km
Cloud details: Clear
NZCH 250300Z AUTO 30013KT 270V330 9999 NCD 24/08 Q0998 NOSIG
  

Script developed by  Saratoga-weather.org Adapted for the template by  Weerstation Leuven